createdAt,value
2023-04-02T00:00:10.447Z,5.91
2023-04-02T00:02:56.605Z,5.88
2023-04-02T00:05:30.529Z,5.89
2023-04-02T00:08:03.283Z,5.87
2023-04-02T00:10:33.473Z,5.86
2023-04-02T00:13:19.823Z,5.80
2023-04-02T00:15:49.535Z,5.81
2023-04-02T00:18:21.593Z,5.80
2023-04-02T00:20:56.342Z,5.80
2023-04-02T00:23:23.055Z,5.78
2023-04-02T00:25:49.532Z,5.77
2023-04-02T00:28:19.625Z,5.79
2023-04-02T00:30:58.848Z,5.78
2023-04-02T00:33:31.552Z,5.73
2023-04-02T00:35:58.048Z,5.72
2023-04-02T00:38:31.745Z,5.75
2023-04-02T00:41:07.209Z,5.73
2023-04-02T00:43:38.370Z,5.73
2023-04-02T00:46:14.617Z,5.72
2023-04-02T00:49:02.879Z,5.69
2023-04-02T00:51:36.813Z,5.71
2023-04-02T00:54:06.822Z,5.70
2023-04-02T00:56:45.456Z,5.66
2023-04-02T00:59:33.537Z,5.61
2023-04-02T01:02:22.715Z,5.61
2023-04-02T01:05:00.722Z,5.63
2023-04-02T01:07:41.274Z,5.58
2023-04-02T01:10:33.067Z,5.58
2023-04-02T01:13:27.057Z,5.58
2023-04-02T01:16:09.830Z,5.53
2023-04-02T01:19:20.184Z,5.54
2023-04-02T01:22:08.064Z,5.53
2023-04-02T01:24:37.249Z,5.51
2023-04-02T01:27:20.653Z,5.51
2023-04-02T01:29:52.456Z,5.50
2023-04-02T01:32:21.985Z,5.49
2023-04-02T01:34:50.621Z,5.46
2023-04-02T01:37:44.855Z,5.43
2023-04-02T01:40:20.752Z,5.45
2023-04-02T01:42:58.382Z,5.40
2023-04-02T01:45:25.502Z,5.44
2023-04-02T01:47:52.695Z,5.41
2023-04-02T01:50:19.061Z,5.41
2023-04-02T01:52:49.638Z,5.36
2023-04-02T01:55:34.091Z,5.34
2023-04-02T01:58:03.750Z,5.32
2023-04-02T02:00:32.419Z,5.30
2023-04-02T02:03:00.973Z,5.33
2023-04-02T02:05:28.764Z,5.32
2023-04-02T02:07:58.247Z,5.32
2023-04-02T02:10:29.534Z,5.29
2023-04-02T02:13:00.165Z,5.29
2023-04-02T02:15:27.632Z,5.25
2023-04-02T02:17:59.310Z,5.26
2023-04-02T02:20:27.938Z,5.25
2023-04-02T02:22:54.705Z,5.21
2023-04-02T02:25:24.933Z,5.22
2023-04-02T02:28:00.388Z,5.22
2023-04-02T02:30:34.477Z,5.19
2023-04-02T02:33:07.613Z,5.19
2023-04-02T02:35:50.817Z,5.17
2023-04-02T02:38:30.843Z,5.17
2023-04-02T02:41:36.282Z,5.13
2023-04-02T02:44:14.268Z,5.14
2023-04-02T02:46:47.860Z,5.14
2023-04-02T02:49:22.451Z,5.13
2023-04-02T02:52:13.814Z,5.10
2023-04-02T02:54:51.754Z,5.11
2023-04-02T02:57:25.148Z,5.10
2023-04-02T02:59:54.705Z,5.09
2023-04-02T03:02:21.725Z,5.06
2023-04-02T03:04:52.990Z,5.05
2023-04-02T03:07:25.458Z,5.05
2023-04-02T03:10:12.318Z,5.06
2023-04-02T03:12:50.086Z,5.05
2023-04-02T03:15:31.507Z,5.05
2023-04-02T03:18:12.064Z,5.01
2023-04-02T03:20:46.750Z,5.01
2023-04-02T03:23:19.314Z,4.99
2023-04-02T03:25:57.300Z,4.92
2023-04-02T03:28:30.699Z,4.99
2023-04-02T03:31:08.424Z,4.98
2023-04-02T03:33:40.040Z,4.93
2023-04-02T03:36:28.518Z,4.91
2023-04-02T03:39:20.612Z,4.95
2023-04-02T03:42:00.611Z,4.95
2023-04-02T03:44:37.361Z,4.92
2023-04-02T03:47:14.287Z,4.87
2023-04-02T03:49:47.870Z,4.93
2023-04-02T03:52:22.362Z,4.90
2023-04-02T03:54:54.010Z,4.88
2023-04-02T03:57:38.404Z,4.89
2023-04-02T04:00:17.221Z,4.91
2023-04-02T04:02:57.389Z,4.90
2023-04-02T04:05:35.916Z,4.85
2023-04-02T04:08:08.259Z,4.83
2023-04-02T04:10:35.503Z,4.83
2023-04-02T04:13:31.460Z,4.82
2023-04-02T04:16:06.778Z,4.82
2023-04-02T04:18:49.044Z,4.86
2023-04-02T04:21:30.128Z,4.83
2023-04-02T04:24:16.623Z,4.83
2023-04-02T04:27:04.507Z,4.82
2023-04-02T04:30:05.700Z,4.84
2023-04-02T04:32:39.060Z,4.83
2023-04-02T04:35:23.729Z,4.85
2023-04-02T04:37:58.935Z,4.84
2023-04-02T04:40:30.503Z,4.82
2023-04-02T04:43:03.572Z,4.81
2023-04-02T04:45:47.202Z,4.79
2023-04-02T04:48:26.503Z,4.81
2023-04-02T04:51:00.671Z,4.84
2023-04-02T04:53:29.441Z,4.85
2023-04-02T04:56:16.005Z,4.84
2023-04-02T04:59:00.849Z,4.85
2023-04-02T05:02:01.613Z,4.83
2023-04-02T05:04:39.076Z,4.80
2023-04-02T05:07:14.096Z,4.85
2023-04-02T05:09:57.823Z,4.83
2023-04-02T05:12:39.687Z,4.85
2023-04-02T05:15:18.040Z,4.85
2023-04-02T05:17:56.656Z,4.81
2023-04-02T05:20:32.393Z,4.82
2023-04-02T05:23:11.329Z,4.84
2023-04-02T05:25:50.285Z,4.85
2023-04-02T05:28:29.974Z,4.84
2023-04-02T05:31:04.172Z,4.85
2023-04-02T05:33:37.526Z,4.84
2023-04-02T05:36:12.696Z,4.86
2023-04-02T05:38:46.707Z,4.87
2023-04-02T05:41:28.293Z,4.87
2023-04-02T05:44:03.694Z,4.85
2023-04-02T05:46:36.932Z,4.88
2023-04-02T05:49:09.649Z,4.89
2023-04-02T05:51:48.460Z,4.90
2023-04-02T05:54:26.091Z,4.91
2023-04-02T05:57:02.921Z,4.89
2023-04-02T05:59:37.739Z,4.90
2023-04-02T06:02:31.474Z,4.89
2023-04-02T06:05:11.288Z,4.93
2023-04-02T06:07:46.869Z,4.94
2023-04-02T06:10:24.794Z,4.93
2023-04-02T06:12:54.374Z,4.97
2023-04-02T06:15:23.780Z,4.97
2023-04-02T06:18:08.555Z,4.98
2023-04-02T06:20:35.975Z,4.99
2023-04-02T06:23:09.583Z,4.99
2023-04-02T06:25:42.398Z,5.00
2023-04-02T06:28:17.221Z,5.02
2023-04-02T06:30:54.589Z,5.04
2023-04-02T06:33:21.400Z,5.05
2023-04-02T06:35:51.879Z,5.10
2023-04-02T06:38:31.269Z,5.09
2023-04-02T06:41:01.317Z,5.09
2023-04-02T06:43:57.528Z,5.11
2023-04-02T06:46:43.480Z,5.10
2023-04-02T06:49:21.203Z,5.16
2023-04-02T06:51:53.787Z,5.17
2023-04-02T06:54:20.985Z,5.17
2023-04-02T06:56:54.366Z,5.19
2023-04-02T06:59:26.775Z,5.21
2023-04-02T07:01:57.788Z,5.19
2023-04-02T07:04:25.689Z,5.25
2023-04-02T07:06:53.761Z,5.26
2023-04-02T07:09:22.808Z,5.27
2023-04-02T07:11:53.796Z,5.30
2023-04-02T07:14:20.537Z,5.33
2023-04-02T07:16:47.076Z,5.34
2023-04-02T07:19:21.792Z,5.33
2023-04-02T07:21:52.118Z,5.37
2023-04-02T07:24:20.484Z,5.38
2023-04-02T07:26:48.274Z,5.40
2023-04-02T07:29:16.785Z,5.45
2023-04-02T07:31:43.608Z,5.44
2023-04-02T07:34:10.244Z,5.47
2023-04-02T07:36:36.819Z,5.50
2023-04-02T07:39:04.271Z,5.51
2023-04-02T07:41:30.917Z,5.52
2023-04-02T07:43:57.535Z,5.49
2023-04-02T07:46:24.521Z,5.54
2023-04-02T07:48:51.145Z,5.52
2023-04-02T07:51:26.018Z,5.53
2023-04-02T07:53:55.927Z,5.55
2023-04-02T07:56:24.557Z,5.57
2023-04-02T07:58:51.409Z,5.56
2023-04-02T08:01:26.267Z,5.59
2023-04-02T08:03:54.824Z,5.61
2023-04-02T08:06:22.558Z,5.61
2023-04-02T08:08:49.267Z,5.61
2023-04-02T08:11:16.367Z,5.61
2023-04-02T08:13:43.139Z,5.60
2023-04-02T08:16:10.551Z,5.62
2023-04-02T08:18:37.500Z,5.64
2023-04-02T08:21:09.797Z,5.66
2023-04-02T08:23:37.955Z,5.66
2023-04-02T08:26:05.816Z,5.68
2023-04-02T08:28:32.297Z,5.68
2023-04-02T08:30:58.814Z,5.71
2023-04-02T08:33:26.025Z,5.72
2023-04-02T08:35:52.459Z,5.73
2023-04-02T08:38:21.832Z,5.77
2023-04-02T08:40:54.429Z,5.78
2023-04-02T08:43:40.798Z,5.79
2023-04-02T08:46:17.593Z,5.80
2023-04-02T08:48:50.809Z,5.82
2023-04-02T08:51:26.607Z,5.81
2023-04-02T08:54:02.276Z,5.81
2023-04-02T08:56:49.312Z,5.83
2023-04-02T08:59:30.351Z,5.85
2023-04-02T09:02:05.695Z,5.88
2023-04-02T09:04:33.843Z,5.90
2023-04-02T09:07:00.901Z,5.93
2023-04-02T09:09:27.744Z,5.93
2023-04-02T09:12:02.816Z,5.96
2023-04-02T09:14:46.021Z,6.00
2023-04-02T09:17:23.751Z,6.04
2023-04-02T09:20:01.532Z,6.08
2023-04-02T09:22:31.616Z,6.13
2023-04-02T09:25:00.905Z,6.12
2023-04-02T09:27:33.995Z,6.18
2023-04-02T09:30:15.029Z,6.17
2023-04-02T09:32:51.148Z,6.23
2023-04-02T09:35:26.637Z,6.25
2023-04-02T09:38:09.915Z,6.27
2023-04-02T09:41:28.606Z,6.27
2023-04-02T09:44:13.162Z,6.30
2023-04-02T09:46:53.214Z,6.33
2023-04-02T09:49:23.563Z,6.38
2023-04-02T09:52:19.094Z,6.37
2023-04-02T09:54:47.608Z,6.40
2023-04-02T09:57:25.079Z,6.41
2023-04-02T10:00:31.919Z,6.42
2023-04-02T10:03:07.223Z,6.44
2023-04-02T10:08:15.869Z,6.47
2023-04-02T10:10:46.720Z,6.48
2023-04-02T10:13:26.184Z,6.45
2023-04-02T10:16:05.689Z,6.50
2023-04-02T10:19:22.665Z,6.48
2023-04-02T10:21:50.118Z,6.52
2023-04-02T10:24:17.699Z,6.52
2023-04-02T10:27:02.428Z,6.51
2023-04-02T10:29:42.828Z,6.53
2023-04-02T10:33:03.200Z,6.52
2023-04-02T10:36:01.642Z,6.53
2023-04-02T10:38:34.138Z,6.55
2023-04-02T10:41:12.790Z,6.53
2023-04-02T10:44:12.691Z,6.56
2023-04-02T10:47:14.832Z,6.56
2023-04-02T10:50:15.663Z,6.61
2023-04-02T10:52:52.521Z,6.61
2023-04-02T10:55:25.061Z,6.68
2023-04-02T10:57:54.051Z,6.69
2023-04-02T11:00:35.051Z,6.67
2023-04-02T11:03:27.113Z,6.69
2023-04-02T11:05:57.617Z,6.77
2023-04-02T11:08:29.515Z,6.81
2023-04-02T11:11:11.553Z,6.81
2023-04-02T11:13:55.362Z,6.82
2023-04-02T11:16:22.739Z,6.89
2023-04-02T11:19:17.225Z,6.90
2023-04-02T11:22:06.067Z,6.92
2023-04-02T11:24:44.087Z,6.96
2023-04-02T11:27:27.549Z,6.97
2023-04-02T11:30:07.650Z,7.00
2023-04-02T11:32:36.497Z,7.03
2023-04-02T11:35:20.708Z,7.04
2023-04-02T11:37:47.350Z,7.00
2023-04-02T11:40:13.980Z,7.05
2023-04-02T11:42:46.083Z,7.07
2023-04-02T11:45:26.003Z,7.08
2023-04-02T11:48:01.586Z,7.11
2023-04-02T11:50:34.739Z,7.14
2023-04-02T11:53:11.407Z,7.18
2023-04-02T11:55:39.692Z,7.20
2023-04-02T11:58:30.305Z,7.20
2023-04-02T12:01:07.852Z,7.23
2023-04-02T12:04:01.050Z,7.25
2023-04-02T12:06:46.706Z,7.28
2023-04-02T12:09:22.414Z,7.30
2023-04-02T12:11:52.573Z,7.30
2023-04-02T12:14:45.823Z,7.36
2023-04-02T12:17:21.417Z,7.40
2023-04-02T12:19:55.629Z,7.42
2023-04-02T12:22:28.871Z,7.42
2023-04-02T12:25:00.990Z,7.46
2023-04-02T12:27:29.487Z,7.49
2023-04-02T12:30:12.463Z,7.49
2023-04-02T12:32:38.925Z,7.52
2023-04-02T12:35:37.021Z,7.50
2023-04-02T12:38:03.445Z,7.56
2023-04-02T12:40:29.905Z,7.58
2023-04-02T12:42:56.308Z,7.59
2023-04-02T12:45:29.693Z,7.59
2023-04-02T12:47:57.928Z,7.62
2023-04-02T12:50:24.792Z,7.65
2023-04-02T12:52:54.911Z,7.66
2023-04-02T12:55:24.596Z,7.68
2023-04-02T12:57:59.037Z,7.69
2023-04-02T13:00:25.496Z,7.70
2023-04-02T13:03:00.971Z,7.73
2023-04-02T13:05:50.095Z,7.73
2023-04-02T13:08:19.715Z,7.75
2023-04-02T13:10:53.558Z,7.78
2023-04-02T13:13:28.246Z,7.80
2023-04-02T13:16:09.730Z,7.80
2023-04-02T13:18:38.161Z,7.83
2023-04-02T13:21:21.201Z,7.88
2023-04-02T13:23:48.227Z,7.92
2023-04-02T13:26:31.728Z,7.91
2023-04-02T13:29:11.201Z,7.98
2023-04-02T13:31:37.831Z,8.00
2023-04-02T13:34:04.249Z,8.02
2023-04-02T13:36:30.726Z,8.02
2023-04-02T13:38:57.453Z,8.07
2023-04-02T13:41:29.481Z,8.11
2023-04-02T13:44:00.001Z,8.12
2023-04-02T13:46:29.757Z,8.16
2023-04-02T13:48:57.687Z,8.18
2023-04-02T13:51:37.174Z,8.20
2023-04-02T13:54:08.514Z,8.19
2023-04-02T13:56:34.944Z,8.22
2023-04-02T13:59:01.403Z,8.26
2023-04-02T14:01:28.307Z,8.26
2023-04-02T14:03:56.747Z,8.29
2023-04-02T14:06:52.283Z,8.29
2023-04-02T14:09:29.824Z,8.33
2023-04-02T14:12:13.243Z,8.34
2023-04-02T14:14:50.597Z,8.37
2023-04-02T14:17:47.338Z,8.37
2023-04-02T14:20:25.953Z,8.40
2023-04-02T14:23:06.810Z,8.36
2023-04-02T14:26:01.058Z,8.42
2023-04-02T14:28:49.299Z,8.42
2023-04-02T14:31:31.523Z,8.42
2023-04-02T14:34:19.801Z,8.45
2023-04-02T14:37:04.562Z,8.46
2023-04-02T14:39:45.789Z,8.49
2023-04-02T14:42:16.520Z,8.51
2023-04-02T14:44:50.236Z,8.51
2023-04-02T14:47:25.725Z,8.42
2023-04-02T14:49:57.080Z,8.49
2023-04-02T14:52:26.709Z,8.55
2023-04-02T14:55:03.430Z,8.55
2023-04-02T14:57:33.296Z,8.56
2023-04-02T15:00:05.813Z,8.58
2023-04-02T15:02:44.742Z,8.57
2023-04-02T15:05:33.112Z,8.59
2023-04-02T15:08:19.827Z,8.59
2023-04-02T15:11:10.664Z,8.57
2023-04-02T15:13:42.198Z,8.58
2023-04-02T15:16:19.584Z,8.57
2023-04-02T15:18:51.053Z,8.59
2023-04-02T15:21:23.072Z,8.61
2023-04-02T15:24:04.452Z,8.62
2023-04-02T15:26:51.917Z,8.63
2023-04-02T15:29:49.245Z,8.63
2023-04-02T15:32:35.970Z,8.62
2023-04-02T15:35:24.911Z,8.62
2023-04-02T15:38:22.966Z,8.63
2023-04-02T15:41:01.756Z,8.62
2023-04-02T15:43:31.780Z,8.62
2023-04-02T15:46:36.348Z,8.61
2023-04-02T15:49:08.957Z,8.63
2023-04-02T15:51:44.908Z,8.60
2023-04-02T15:54:30.637Z,8.64
2023-04-02T15:57:16.446Z,8.65
2023-04-02T16:00:02.759Z,8.63
2023-04-02T16:02:58.316Z,8.63
2023-04-02T16:05:52.871Z,8.61
2023-04-02T16:08:33.406Z,8.62
2023-04-02T16:10:59.927Z,8.60
2023-04-02T16:13:29.427Z,8.63
2023-04-02T16:16:08.183Z,8.62
2023-04-02T16:18:34.573Z,8.63
2023-04-02T16:21:02.882Z,8.57
2023-04-02T16:23:38.302Z,8.62
2023-04-02T16:26:29.864Z,8.63
2023-04-02T16:29:54.628Z,8.59
2023-04-02T16:32:41.045Z,8.56
2023-04-02T16:35:42.734Z,8.55
2023-04-02T16:38:43.731Z,8.56
2023-04-02T16:41:33.572Z,8.56
2023-04-02T16:44:07.951Z,8.50
2023-04-02T16:46:40.304Z,8.55
2023-04-02T16:49:09.842Z,8.54
2023-04-02T16:51:52.193Z,8.54
2023-04-02T16:54:45.924Z,8.52
2023-04-02T16:57:29.776Z,8.49
2023-04-02T17:00:12.397Z,8.50
2023-04-02T17:02:47.853Z,8.49
2023-04-02T17:05:33.212Z,8.46
2023-04-02T17:08:21.292Z,8.42
2023-04-02T17:10:55.076Z,8.46
2023-04-02T17:13:52.795Z,8.43
2023-04-02T17:16:36.667Z,8.40
2023-04-02T17:19:09.593Z,8.35
2023-04-02T17:21:38.079Z,8.35
2023-04-02T17:24:17.195Z,8.37
2023-04-02T17:26:47.498Z,8.36
2023-04-02T17:29:27.078Z,8.38
2023-04-02T17:32:01.365Z,8.34
2023-04-02T17:34:28.246Z,8.33
2023-04-02T17:37:20.069Z,8.31
2023-04-02T17:40:08.422Z,8.31
2023-04-02T17:42:54.820Z,8.23
2023-04-02T17:45:39.124Z,8.29
2023-04-02T17:48:08.746Z,8.23
2023-04-02T17:50:51.942Z,8.23
2023-04-02T17:53:33.070Z,8.21
2023-04-02T17:56:19.908Z,8.20
2023-04-02T17:59:23.725Z,8.17
2023-04-02T18:02:00.890Z,8.12
2023-04-02T18:04:48.812Z,8.14
2023-04-02T18:07:36.868Z,8.01
2023-04-02T18:10:27.863Z,8.08
2023-04-02T18:13:07.612Z,8.01
2023-04-02T18:15:50.348Z,7.96
2023-04-02T18:18:41.076Z,7.97
2023-04-02T18:21:32.769Z,7.95
2023-04-02T18:24:21.411Z,7.90
2023-04-02T18:27:00.975Z,7.87
2023-04-02T18:29:39.548Z,7.90
2023-04-02T18:32:27.350Z,7.87
2023-04-02T18:35:07.873Z,7.85
2023-04-02T18:38:12.673Z,7.81
2023-04-02T18:40:57.661Z,7.80
2023-04-02T18:43:46.938Z,7.74
2023-04-02T18:46:32.421Z,7.74
2023-04-02T18:49:05.424Z,7.72
2023-04-02T18:51:36.672Z,7.66
2023-04-02T18:54:17.830Z,7.67
2023-04-02T18:56:44.511Z,7.53
2023-04-02T18:59:37.999Z,7.60
2023-04-02T19:02:44.270Z,7.58
2023-04-02T19:05:36.853Z,7.56
2023-04-02T19:08:47.827Z,7.53
2023-04-02T19:11:20.279Z,7.49
2023-04-02T19:13:48.872Z,7.42
2023-04-02T19:16:58.812Z,7.44
2023-04-02T19:19:27.455Z,7.37
2023-04-02T19:22:09.048Z,7.38
2023-04-02T19:25:13.818Z,7.36
2023-04-02T19:27:59.943Z,7.27
2023-04-02T19:30:53.837Z,7.29
2023-04-02T19:33:32.501Z,7.26
2023-04-02T19:36:31.877Z,7.24
2023-04-02T19:39:16.735Z,7.19
2023-04-02T19:41:49.548Z,7.18
2023-04-02T19:44:17.015Z,7.16
2023-04-02T19:46:44.637Z,7.14
2023-04-02T19:49:14.567Z,7.08
2023-04-02T19:51:41.111Z,7.07
2023-04-02T19:54:07.576Z,7.06
2023-04-02T19:56:34.298Z,7.02
2023-04-02T19:59:07.831Z,7.00
2023-04-02T20:01:43.406Z,6.98
2023-04-02T20:04:09.910Z,6.96
2023-04-02T20:06:37.491Z,6.96
2023-04-02T20:09:04.170Z,6.93
2023-04-02T20:11:30.938Z,6.89
2023-04-02T20:13:57.377Z,6.89
2023-04-02T20:16:23.930Z,6.88
2023-04-02T20:18:51.315Z,6.83
2023-04-02T20:21:17.771Z,6.83
2023-04-02T20:23:44.450Z,6.82
2023-04-02T20:26:11.655Z,6.78
2023-04-02T20:28:38.167Z,6.77
2023-04-02T20:31:06.058Z,6.75
2023-04-02T20:33:32.765Z,6.69
2023-04-02T20:36:06.218Z,6.69
2023-04-02T20:38:33.300Z,6.70
2023-04-02T20:41:00.744Z,6.68
2023-04-02T20:43:28.390Z,6.55
2023-04-02T20:46:08.337Z,6.64
2023-04-02T20:48:37.629Z,6.55
2023-04-02T20:51:06.964Z,6.59
2023-04-02T20:53:35.281Z,6.59
2023-04-02T20:56:13.655Z,6.55
2023-04-02T20:58:40.869Z,6.52
2023-04-02T21:01:37.533Z,6.52
2023-04-02T21:04:04.378Z,6.51
2023-04-02T21:06:34.109Z,6.47
2023-04-02T21:09:03.212Z,6.45
2023-04-02T21:11:29.673Z,6.44
2023-04-02T21:13:56.198Z,6.40
2023-04-02T21:16:31.969Z,6.40
2023-04-02T21:19:02.590Z,6.43
2023-04-02T21:21:29.416Z,6.37
2023-04-02T21:23:59.334Z,6.37
2023-04-02T21:26:26.942Z,6.35
2023-04-02T21:28:53.685Z,6.32
2023-04-02T21:31:22.957Z,6.32
2023-04-02T21:33:52.449Z,6.26
2023-04-02T21:36:24.626Z,6.27
2023-04-02T21:39:02.596Z,6.17
2023-04-02T21:41:32.179Z,6.22
2023-04-02T21:44:00.886Z,6.15
2023-04-02T21:46:29.398Z,6.17
2023-04-02T21:48:57.992Z,6.13
2023-04-02T21:51:26.681Z,6.14
2023-04-02T21:53:54.182Z,6.09
2023-04-02T21:56:28.601Z,6.08
2023-04-02T21:58:56.873Z,6.06
2023-04-02T22:01:27.967Z,6.03
2023-04-02T22:04:00.553Z,5.98
2023-04-02T22:06:29.646Z,5.99
2023-04-02T22:08:59.026Z,5.93
2023-04-02T22:11:28.254Z,5.95
2023-04-02T22:13:55.036Z,5.90
2023-04-02T22:16:24.544Z,5.91
2023-04-02T22:18:53.660Z,5.87
2023-04-02T22:21:20.443Z,5.83
2023-04-02T22:23:47.047Z,5.82
2023-04-02T22:26:14.886Z,5.79
2023-04-02T22:28:41.830Z,5.80
2023-04-02T22:31:20.161Z,5.76
2023-04-02T22:33:47.206Z,5.73
2023-04-02T22:36:17.153Z,5.70
2023-04-02T22:38:44.027Z,5.69
2023-04-02T22:41:19.468Z,5.66
2023-04-02T22:43:46.178Z,5.65
2023-04-02T22:46:14.416Z,5.64
2023-04-02T22:48:41.060Z,5.60
2023-04-02T22:51:09.009Z,5.60
2023-04-02T22:53:36.604Z,5.53
2023-04-02T22:56:06.614Z,5.53
2023-04-02T22:58:33.651Z,5.53
2023-04-02T23:01:28.387Z,5.48
2023-04-02T23:03:55.892Z,5.44
2023-04-02T23:06:23.593Z,5.42
2023-04-02T23:08:50.405Z,5.45
2023-04-02T23:11:21.853Z,5.38
2023-04-02T23:13:50.355Z,5.39
2023-04-02T23:16:18.159Z,5.40
2023-04-02T23:18:47.923Z,5.38
2023-04-02T23:21:15.036Z,5.29
2023-04-02T23:23:41.731Z,5.31
2023-04-02T23:26:17.266Z,5.32
2023-04-02T23:28:44.331Z,5.30
2023-04-02T23:31:14.143Z,5.28
2023-04-02T23:33:40.839Z,5.28
2023-04-02T23:36:28.006Z,5.21
2023-04-02T23:38:56.643Z,5.24
2023-04-02T23:41:26.643Z,5.22
2023-04-02T23:43:54.150Z,5.20
2023-04-02T23:46:20.923Z,5.17
2023-04-02T23:48:50.501Z,5.15
2023-04-02T23:51:17.452Z,5.14
2023-04-02T23:53:43.949Z,5.14
2023-04-02T23:56:10.971Z,5.07
2023-04-02T23:58:37.810Z,5.11
